Lawn Ridge, Illinois
Current Conditions -  °F | °C
As of 10:15 AM on Thursday 30 Oct 2014 (Local Time) from KC75 Reporting Station
Scattered Clouds Scattered Clouds  
Wind Chill: 41°   Ceiling: Unl
Heat Index: 44°   Visibility: 10mi
Dew Point: 35°   Wind: 5mph
Humidity: 72%   Direction: 220°SW
Pressure: 30.12"   Gusts: NA
Location:  40.9686°N, 89.597°W
Report Text: KC75 301515Z AUTO 22004KT 10SM SCT110 07/02 A3012 RMK AO2 T00660019
Loading
Personal Weather Stations






























Interactive Weather Map
Tropical Storm Tracking
New forecast layout! Learn more

10-Day Weather Forecast

Advertisements
Track Severe Weather on mobile